sensor_id;sensor_type;location;lat;lon;timestamp;P1;durP1;ratioP1;P2;durP2;ratioP2
9106;SDS011;4589;48.690;8.952;2022-11-28T00:00:16;14.90;;;9.43;;
9106;SDS011;4589;48.690;8.952;2022-11-28T00:02:42;15.00;;;9.80;;
9106;SDS011;4589;48.690;8.952;2022-11-28T00:05:09;10.77;;;8.20;;
9106;SDS011;4589;48.690;8.952;2022-11-28T00:07:35;11.63;;;9.03;;
9106;SDS011;4589;48.690;8.952;2022-11-28T00:10:01;14.53;;;8.73;;
9106;SDS011;4589;48.690;8.952;2022-11-28T00:12:27;14.00;;;9.20;;
9106;SDS011;4589;48.690;8.952;2022-11-28T00:14:53;12.57;;;9.83;;
9106;SDS011;4589;48.690;8.952;2022-11-28T00:17:19;14.67;;;10.20;;
9106;SDS011;4589;48.690;8.952;2022-11-28T00:19:45;15.63;;;9.80;;
9106;SDS011;4589;48.690;8.952;2022-11-28T00:22:11;15.17;;;10.80;;
9106;SDS011;4589;48.690;8.952;2022-11-28T00:24:38;14.87;;;10.80;;
9106;SDS011;4589;48.690;8.952;2022-11-28T00:27:04;14.97;;;10.20;;
9106;SDS011;4589;48.690;8.952;2022-11-28T00:29:30;11.13;;;9.30;;
9106;SDS011;4589;48.690;8.952;2022-11-28T00:31:56;13.63;;;10.20;;
9106;SDS011;4589;48.690;8.952;2022-11-28T00:34:22;12.30;;;9.30;;
9106;SDS011;4589;48.690;8.952;2022-11-28T00:36:48;13.30;;;9.20;;
9106;SDS011;4589;48.690;8.952;2022-11-28T00:39:14;15.90;;;10.17;;
9106;SDS011;4589;48.690;8.952;2022-11-28T00:41:40;19.40;;;10.10;;
9106;SDS011;4589;48.690;8.952;2022-11-28T00:44:06;17.20;;;11.43;;
9106;SDS011;4589;48.690;8.952;2022-11-28T00:46:32;16.90;;;11.97;;
9106;SDS011;4589;48.690;8.952;2022-11-28T00:48:58;15.67;;;10.93;;
9106;SDS011;4589;48.690;8.952;2022-11-28T00:51:25;16.07;;;10.90;;
9106;SDS011;4589;48.690;8.952;2022-11-28T00:53:53;15.60;;;11.53;;
9106;SDS011;4589;48.690;8.952;2022-11-28T00:56:20;16.90;;;11.77;;
9106;SDS011;4589;48.690;8.952;2022-11-28T00:58:46;17.33;;;12.10;;
9106;SDS011;4589;48.690;8.952;2022-11-28T01:01:16;16.60;;;11.40;;
9106;SDS011;4589;48.690;8.952;2022-11-28T01:03:42;17.00;;;11.07;;
9106;SDS011;4589;48.690;8.952;2022-11-28T01:06:08;17.93;;;12.33;;
9106;SDS011;4589;48.690;8.952;2022-11-28T01:08:35;18.30;;;12.10;;
9106;SDS011;4589;48.690;8.952;2022-11-28T01:11:02;17.90;;;12.30;;
9106;SDS011;4589;48.690;8.952;2022-11-28T01:13:28;18.97;;;12.73;;
9106;SDS011;4589;48.690;8.952;2022-11-28T01:15:54;18.40;;;12.13;;
9106;SDS011;4589;48.690;8.952;2022-11-28T01:18:22;16.73;;;10.93;;
9106;SDS011;4589;48.690;8.952;2022-11-28T01:20:48;19.93;;;12.87;;
9106;SDS011;4589;48.690;8.952;2022-11-28T01:23:15;16.00;;;12.07;;
9106;SDS011;4589;48.690;8.952;2022-11-28T01:25:42;16.77;;;12.77;;
9106;SDS011;4589;48.690;8.952;2022-11-28T01:28:08;15.57;;;11.37;;
9106;SDS011;4589;48.690;8.952;2022-11-28T01:30:34;16.33;;;11.57;;
9106;SDS011;4589;48.690;8.952;2022-11-28T01:33:00;14.40;;;11.03;;
9106;SDS011;4589;48.690;8.952;2022-11-28T01:35:26;16.97;;;12.03;;
9106;SDS011;4589;48.690;8.952;2022-11-28T01:37:52;17.30;;;12.80;;
9106;SDS011;4589;48.690;8.952;2022-11-28T01:40:18;16.73;;;12.30;;
9106;SDS011;4589;48.690;8.952;2022-11-28T01:42:44;19.23;;;12.73;;
9106;SDS011;4589;48.690;8.952;2022-11-28T01:45:29;19.10;;;11.87;;
9106;SDS011;4589;48.690;8.952;2022-11-28T01:47:57;16.30;;;11.30;;
9106;SDS011;4589;48.690;8.952;2022-11-28T01:50:24;16.20;;;11.83;;
9106;SDS011;4589;48.690;8.952;2022-11-28T01:52:52;17.80;;;11.07;;
9106;SDS011;4589;48.690;8.952;2022-11-28T01:55:21;15.20;;;10.70;;
9106;SDS011;4589;48.690;8.952;2022-11-28T01:57:47;14.20;;;9.90;;
9106;SDS011;4589;48.690;8.952;2022-11-28T02:00:15;14.40;;;11.37;;
9106;SDS011;4589;48.690;8.952;2022-11-28T02:02:45;18.93;;;11.57;;
9106;SDS011;4589;48.690;8.952;2022-11-28T02:05:12;17.10;;;11.20;;
9106;SDS011;4589;48.690;8.952;2022-11-28T02:07:38;14.37;;;11.10;;
9106;SDS011;4589;48.690;8.952;2022-11-28T02:10:05;15.20;;;10.73;;
9106;SDS011;4589;48.690;8.952;2022-11-28T02:15:27;15.70;;;9.67;;
9106;SDS011;4589;48.690;8.952;2022-11-28T02:23:22;13.13;;;10.03;;
9106;SDS011;4589;48.690;8.952;2022-11-28T02:33:37;13.00;;;8.63;;
9106;SDS011;4589;48.690;8.952;2022-11-28T02:36:14;13.20;;;9.30;;
9106;SDS011;4589;48.690;8.952;2022-11-28T02:41:12;12.03;;;8.53;;
9106;SDS011;4589;48.690;8.952;2022-11-28T02:43:50;13.60;;;9.03;;
9106;SDS011;4589;48.690;8.952;2022-11-28T02:46:33;10.10;;;8.53;;
9106;SDS011;4589;48.690;8.952;2022-11-28T02:49:03;12.10;;;7.10;;
9106;SDS011;4589;48.690;8.952;2022-11-28T02:53:56;12.20;;;8.17;;
9106;SDS011;4589;48.690;8.952;2022-11-28T02:56:23;10.03;;;7.97;;
9106;SDS011;4589;48.690;8.952;2022-11-28T02:58:50;12.33;;;8.40;;
9106;SDS011;4589;48.690;8.952;2022-11-28T03:01:17;11.23;;;8.17;;
9106;SDS011;4589;48.690;8.952;2022-11-28T03:03:47;10.80;;;8.00;;
9106;SDS011;4589;48.690;8.952;2022-11-28T03:06:30;13.80;;;8.90;;
9106;SDS011;4589;48.690;8.952;2022-11-28T03:13:54;13.67;;;9.17;;
9106;SDS011;4589;48.690;8.952;2022-11-28T03:24:37;15.03;;;7.20;;
9106;SDS011;4589;48.690;8.952;2022-11-28T03:29:36;9.23;;;6.97;;
9106;SDS011;4589;48.690;8.952;2022-11-28T03:32:08;14.57;;;7.47;;
9106;SDS011;4589;48.690;8.952;2022-11-28T03:34:39;10.53;;;7.33;;
9106;SDS011;4589;48.690;8.952;2022-11-28T03:37:15;10.73;;;6.90;;
9106;SDS011;4589;48.690;8.952;2022-11-28T03:39:43;8.03;;;6.27;;
9106;SDS011;4589;48.690;8.952;2022-11-28T03:42:29;10.90;;;7.03;;
9106;SDS011;4589;48.690;8.952;2022-11-28T03:44:58;9.53;;;7.10;;
9106;SDS011;4589;48.690;8.952;2022-11-28T03:47:27;10.23;;;7.17;;
9106;SDS011;4589;48.690;8.952;2022-11-28T03:49:55;10.40;;;7.07;;
9106;SDS011;4589;48.690;8.952;2022-11-28T03:52:23;9.63;;;7.70;;
9106;SDS011;4589;48.690;8.952;2022-11-28T03:55:01;11.73;;;7.43;;
9106;SDS011;4589;48.690;8.952;2022-11-28T03:57:43;13.07;;;7.77;;
9106;SDS011;4589;48.690;8.952;2022-11-28T04:00:10;10.27;;;7.30;;
9106;SDS011;4589;48.690;8.952;2022-11-28T04:02:38;10.90;;;7.10;;
9106;SDS011;4589;48.690;8.952;2022-11-28T04:07:47;10.67;;;7.53;;
9106;SDS011;4589;48.690;8.952;2022-11-28T04:10:32;12.00;;;8.27;;
9106;SDS011;4589;48.690;8.952;2022-11-28T04:13:03;10.53;;;7.67;;
9106;SDS011;4589;48.690;8.952;2022-11-28T04:15:47;9.03;;;7.40;;
9106;SDS011;4589;48.690;8.952;2022-11-28T04:20:42;11.67;;;8.23;;
9106;SDS011;4589;48.690;8.952;2022-11-28T04:23:12;14.07;;;8.20;;
9106;SDS011;4589;48.690;8.952;2022-11-28T04:25:41;10.47;;;7.47;;
9106;SDS011;4589;48.690;8.952;2022-11-28T04:28:11;11.57;;;7.80;;
9106;SDS011;4589;48.690;8.952;2022-11-28T04:30:37;10.90;;;7.50;;
9106;SDS011;4589;48.690;8.952;2022-11-28T04:33:05;12.10;;;7.33;;
9106;SDS011;4589;48.690;8.952;2022-11-28T04:35:34;10.63;;;7.37;;
9106;SDS011;4589;48.690;8.952;2022-11-28T04:38:01;11.70;;;7.50;;
9106;SDS011;4589;48.690;8.952;2022-11-28T04:40:29;11.53;;;7.67;;
9106;SDS011;4589;48.690;8.952;2022-11-28T04:42:57;10.23;;;7.67;;
9106;SDS011;4589;48.690;8.952;2022-11-28T04:45:33;9.77;;;8.37;;
9106;SDS011;4589;48.690;8.952;2022-11-28T04:48:00;10.20;;;7.83;;
9106;SDS011;4589;48.690;8.952;2022-11-28T04:53:24;10.20;;;7.40;;
9106;SDS011;4589;48.690;8.952;2022-11-28T04:55:54;10.33;;;7.90;;
9106;SDS011;4589;48.690;8.952;2022-11-28T04:58:21;9.90;;;7.93;;
9106;SDS011;4589;48.690;8.952;2022-11-28T05:00:50;11.40;;;8.47;;
9106;SDS011;4589;48.690;8.952;2022-11-28T05:03:17;12.80;;;8.93;;
9106;SDS011;4589;48.690;8.952;2022-11-28T05:05:44;9.93;;;7.57;;
9106;SDS011;4589;48.690;8.952;2022-11-28T05:08:11;9.53;;;7.33;;
9106;SDS011;4589;48.690;8.952;2022-11-28T05:10:37;9.37;;;7.97;;
9106;SDS011;4589;48.690;8.952;2022-11-28T05:13:03;9.03;;;8.00;;
9106;SDS011;4589;48.690;8.952;2022-11-28T05:15:29;10.13;;;8.40;;
9106;SDS011;4589;48.690;8.952;2022-11-28T05:17:55;9.53;;;7.60;;
9106;SDS011;4589;48.690;8.952;2022-11-28T05:20:21;10.37;;;8.23;;
9106;SDS011;4589;48.690;8.952;2022-11-28T05:22:47;13.23;;;8.93;;
9106;SDS011;4589;48.690;8.952;2022-11-28T05:25:13;11.10;;;8.50;;
9106;SDS011;4589;48.690;8.952;2022-11-28T05:27:39;10.23;;;8.17;;
9106;SDS011;4589;48.690;8.952;2022-11-28T05:30:05;8.00;;;6.83;;
9106;SDS011;4589;48.690;8.952;2022-11-28T05:32:31;9.80;;;7.37;;
9106;SDS011;4589;48.690;8.952;2022-11-28T05:34:57;8.67;;;7.60;;
9106;SDS011;4589;48.690;8.952;2022-11-28T05:37:23;12.83;;;8.53;;
9106;SDS011;4589;48.690;8.952;2022-11-28T05:39:50;11.17;;;7.10;;
9106;SDS011;4589;48.690;8.952;2022-11-28T05:42:16;9.70;;;6.30;;
9106;SDS011;4589;48.690;8.952;2022-11-28T05:44:42;11.37;;;7.43;;
9106;SDS011;4589;48.690;8.952;2022-11-28T05:47:08;7.13;;;6.10;;
9106;SDS011;4589;48.690;8.952;2022-11-28T05:49:34;16.63;;;7.57;;
9106;SDS011;4589;48.690;8.952;2022-11-28T05:52:00;11.57;;;7.03;;
9106;SDS011;4589;48.690;8.952;2022-11-28T05:54:26;12.20;;;7.30;;
9106;SDS011;4589;48.690;8.952;2022-11-28T05:56:52;8.70;;;6.07;;
9106;SDS011;4589;48.690;8.952;2022-11-28T05:59:17;13.63;;;6.93;;
9106;SDS011;4589;48.690;8.952;2022-11-28T06:01:43;12.20;;;7.70;;
9106;SDS011;4589;48.690;8.952;2022-11-28T06:04:09;11.20;;;7.63;;
9106;SDS011;4589;48.690;8.952;2022-11-28T06:06:35;12.67;;;8.00;;
9106;SDS011;4589;48.690;8.952;2022-11-28T06:09:02;14.00;;;7.40;;
9106;SDS011;4589;48.690;8.952;2022-11-28T06:11:29;13.50;;;6.70;;
9106;SDS011;4589;48.690;8.952;2022-11-28T06:13:55;9.30;;;7.37;;
9106;SDS011;4589;48.690;8.952;2022-11-28T06:16:22;11.27;;;6.80;;
9106;SDS011;4589;48.690;8.952;2022-11-28T06:18:52;10.17;;;6.43;;
9106;SDS011;4589;48.690;8.952;2022-11-28T06:21:18;7.83;;;6.27;;
9106;SDS011;4589;48.690;8.952;2022-11-28T06:23:45;11.20;;;7.67;;
9106;SDS011;4589;48.690;8.952;2022-11-28T06:26:12;11.33;;;6.40;;
9106;SDS011;4589;48.690;8.952;2022-11-28T06:28:38;12.50;;;7.10;;
9106;SDS011;4589;48.690;8.952;2022-11-28T06:33:54;11.90;;;7.57;;
9106;SDS011;4589;48.690;8.952;2022-11-28T06:36:20;8.80;;;7.20;;
9106;SDS011;4589;48.690;8.952;2022-11-28T06:38:46;11.53;;;8.10;;
9106;SDS011;4589;48.690;8.952;2022-11-28T06:41:14;9.70;;;7.00;;
9106;SDS011;4589;48.690;8.952;2022-11-28T06:43:40;10.83;;;6.87;;
9106;SDS011;4589;48.690;8.952;2022-11-28T06:46:13;9.80;;;7.93;;
9106;SDS011;4589;48.690;8.952;2022-11-28T06:48:39;13.73;;;7.77;;
9106;SDS011;4589;48.690;8.952;2022-11-28T06:51:05;8.33;;;6.17;;
9106;SDS011;4589;48.690;8.952;2022-11-28T06:53:32;14.20;;;6.57;;
9106;SDS011;4589;48.690;8.952;2022-11-28T06:56:08;10.60;;;7.30;;
9106;SDS011;4589;48.690;8.952;2022-11-28T06:58:34;10.53;;;7.17;;
9106;SDS011;4589;48.690;8.952;2022-11-28T07:01:11;8.77;;;6.50;;
9106;SDS011;4589;48.690;8.952;2022-11-28T07:03:38;10.67;;;7.33;;
9106;SDS011;4589;48.690;8.952;2022-11-28T07:06:04;8.27;;;6.10;;
9106;SDS011;4589;48.690;8.952;2022-11-28T07:08:30;8.67;;;6.97;;
9106;SDS011;4589;48.690;8.952;2022-11-28T07:10:56;10.20;;;7.60;;
9106;SDS011;4589;48.690;8.952;2022-11-28T07:13:22;11.57;;;7.30;;
9106;SDS011;4589;48.690;8.952;2022-11-28T07:15:49;12.43;;;8.10;;
9106;SDS011;4589;48.690;8.952;2022-11-28T07:18:15;11.47;;;7.20;;
9106;SDS011;4589;48.690;8.952;2022-11-28T07:20:41;12.17;;;7.10;;
9106;SDS011;4589;48.690;8.952;2022-11-28T07:23:07;13.53;;;7.30;;
9106;SDS011;4589;48.690;8.952;2022-11-28T07:25:33;9.10;;;6.23;;
9106;SDS011;4589;48.690;8.952;2022-11-28T07:27:59;13.40;;;7.10;;
9106;SDS011;4589;48.690;8.952;2022-11-28T07:30:25;11.47;;;7.83;;
9106;SDS011;4589;48.690;8.952;2022-11-28T07:32:51;9.33;;;7.03;;
9106;SDS011;4589;48.690;8.952;2022-11-28T07:35:17;8.47;;;7.10;;
9106;SDS011;4589;48.690;8.952;2022-11-28T07:37:43;10.13;;;6.50;;
9106;SDS011;4589;48.690;8.952;2022-11-28T07:40:09;9.83;;;6.83;;
9106;SDS011;4589;48.690;8.952;2022-11-28T07:42:37;10.30;;;6.23;;
9106;SDS011;4589;48.690;8.952;2022-11-28T07:45:03;10.17;;;6.63;;
9106;SDS011;4589;48.690;8.952;2022-11-28T07:47:30;9.93;;;6.60;;
9106;SDS011;4589;48.690;8.952;2022-11-28T07:49:56;8.20;;;6.57;;
9106;SDS011;4589;48.690;8.952;2022-11-28T07:52:22;10.80;;;6.50;;
9106;SDS011;4589;48.690;8.952;2022-11-28T07:54:48;10.07;;;6.43;;
9106;SDS011;4589;48.690;8.952;2022-11-28T07:57:14;9.93;;;6.57;;
9106;SDS011;4589;48.690;8.952;2022-11-28T07:59:40;9.97;;;7.87;;
9106;SDS011;4589;48.690;8.952;2022-11-28T08:02:07;8.17;;;6.10;;
9106;SDS011;4589;48.690;8.952;2022-11-28T08:04:33;10.57;;;7.40;;
9106;SDS011;4589;48.690;8.952;2022-11-28T08:07:00;11.43;;;7.37;;
9106;SDS011;4589;48.690;8.952;2022-11-28T08:09:26;11.43;;;7.07;;
9106;SDS011;4589;48.690;8.952;2022-11-28T08:11:53;16.90;;;9.37;;
9106;SDS011;4589;48.690;8.952;2022-11-28T08:14:19;25.50;;;12.77;;
9106;SDS011;4589;48.690;8.952;2022-11-28T08:16:45;39.53;;;17.90;;
9106;SDS011;4589;48.690;8.952;2022-11-28T08:19:11;14.90;;;7.43;;
9106;SDS011;4589;48.690;8.952;2022-11-28T08:21:37;12.30;;;7.80;;
9106;SDS011;4589;48.690;8.952;2022-11-28T08:24:03;11.00;;;7.03;;
9106;SDS011;4589;48.690;8.952;2022-11-28T08:26:30;10.07;;;7.60;;
9106;SDS011;4589;48.690;8.952;2022-11-28T08:28:57;13.90;;;7.07;;
9106;SDS011;4589;48.690;8.952;2022-11-28T08:31:26;11.30;;;8.70;;
9106;SDS011;4589;48.690;8.952;2022-11-28T08:33:54;15.17;;;8.40;;
9106;SDS011;4589;48.690;8.952;2022-11-28T08:36:20;11.17;;;7.67;;
9106;SDS011;4589;48.690;8.952;2022-11-28T08:38:47;13.50;;;7.30;;
9106;SDS011;4589;48.690;8.952;2022-11-28T08:41:14;11.30;;;8.70;;
9106;SDS011;4589;48.690;8.952;2022-11-28T08:43:41;11.13;;;6.93;;
9106;SDS011;4589;48.690;8.952;2022-11-28T08:46:11;9.53;;;6.40;;
9106;SDS011;4589;48.690;8.952;2022-11-28T08:48:38;11.23;;;7.90;;
9106;SDS011;4589;48.690;8.952;2022-11-28T08:51:04;12.73;;;7.37;;
9106;SDS011;4589;48.690;8.952;2022-11-28T08:53:31;10.20;;;6.80;;
9106;SDS011;4589;48.690;8.952;2022-11-28T08:55:58;8.63;;;6.17;;
9106;SDS011;4589;48.690;8.952;2022-11-28T08:58:24;11.23;;;7.33;;
9106;SDS011;4589;48.690;8.952;2022-11-28T09:00:50;10.43;;;6.83;;
9106;SDS011;4589;48.690;8.952;2022-11-28T09:03:17;12.90;;;7.90;;
9106;SDS011;4589;48.690;8.952;2022-11-28T09:05:43;10.33;;;6.83;;
9106;SDS011;4589;48.690;8.952;2022-11-28T09:08:11;8.03;;;6.40;;
9106;SDS011;4589;48.690;8.952;2022-11-28T09:10:37;9.70;;;6.30;;
9106;SDS011;4589;48.690;8.952;2022-11-28T09:13:04;9.07;;;7.03;;
9106;SDS011;4589;48.690;8.952;2022-11-28T09:15:30;9.80;;;7.57;;
9106;SDS011;4589;48.690;8.952;2022-11-28T09:17:56;9.57;;;7.00;;
9106;SDS011;4589;48.690;8.952;2022-11-28T09:20:22;12.23;;;7.10;;
9106;SDS011;4589;48.690;8.952;2022-11-28T09:22:48;17.40;;;7.80;;
9106;SDS011;4589;48.690;8.952;2022-11-28T09:25:14;10.47;;;7.10;;
9106;SDS011;4589;48.690;8.952;2022-11-28T09:27:40;8.27;;;5.60;;
9106;SDS011;4589;48.690;8.952;2022-11-28T09:30:07;7.00;;;6.10;;
9106;SDS011;4589;48.690;8.952;2022-11-28T09:32:33;8.53;;;5.60;;
9106;SDS011;4589;48.690;8.952;2022-11-28T09:35:00;10.13;;;5.43;;
9106;SDS011;4589;48.690;8.952;2022-11-28T09:37:26;9.60;;;5.90;;
9106;SDS011;4589;48.690;8.952;2022-11-28T09:39:52;6.37;;;4.90;;
9106;SDS011;4589;48.690;8.952;2022-11-28T09:45:21;8.50;;;5.73;;
9106;SDS011;4589;48.690;8.952;2022-11-28T09:47:51;5.90;;;5.00;;
9106;SDS011;4589;48.690;8.952;2022-11-28T09:50:32;6.07;;;5.47;;
9106;SDS011;4589;48.690;8.952;2022-11-28T09:58:15;5.90;;;5.23;;
9106;SDS011;4589;48.690;8.952;2022-11-28T10:00:49;7.43;;;4.80;;
9106;SDS011;4589;48.690;8.952;2022-11-28T10:06:05;6.63;;;4.67;;
9106;SDS011;4589;48.690;8.952;2022-11-28T10:18:52;5.83;;;4.63;;
9106;SDS011;4589;48.690;8.952;2022-11-28T10:23:47;11.50;;;6.80;;
9106;SDS011;4589;48.690;8.952;2022-11-28T10:26:16;8.27;;;6.23;;
9106;SDS011;4589;48.690;8.952;2022-11-28T10:28:44;8.93;;;5.57;;
9106;SDS011;4589;48.690;8.952;2022-11-28T10:31:14;9.23;;;5.70;;
9106;SDS011;4589;48.690;8.952;2022-11-28T10:36:20;14.47;;;9.00;;
9106;SDS011;4589;48.690;8.952;2022-11-28T10:38:47;16.37;;;6.90;;
9106;SDS011;4589;48.690;8.952;2022-11-28T10:41:17;10.67;;;6.17;;
9106;SDS011;4589;48.690;8.952;2022-11-28T10:43:50;6.43;;;4.97;;
9106;SDS011;4589;48.690;8.952;2022-11-28T10:48:52;6.90;;;5.47;;
9106;SDS011;4589;48.690;8.952;2022-11-28T10:51:37;6.87;;;4.83;;
9106;SDS011;4589;48.690;8.952;2022-11-28T10:56:57;30.93;;;13.13;;
9106;SDS011;4589;48.690;8.952;2022-11-28T11:02:21;12.30;;;7.40;;
9106;SDS011;4589;48.690;8.952;2022-11-28T11:04:51;6.40;;;5.30;;
9106;SDS011;4589;48.690;8.952;2022-11-28T11:07:18;8.43;;;5.70;;
9106;SDS011;4589;48.690;8.952;2022-11-28T11:12:56;8.83;;;6.20;;
9106;SDS011;4589;48.690;8.952;2022-11-28T11:15:24;10.23;;;6.23;;
9106;SDS011;4589;48.690;8.952;2022-11-28T11:17:54;6.27;;;5.03;;
9106;SDS011;4589;48.690;8.952;2022-11-28T11:22:53;5.27;;;4.63;;
9106;SDS011;4589;48.690;8.952;2022-11-28T11:25:20;12.23;;;5.30;;
9106;SDS011;4589;48.690;8.952;2022-11-28T11:27:50;8.40;;;5.60;;
9106;SDS011;4589;48.690;8.952;2022-11-28T11:30:17;6.90;;;5.10;;
9106;SDS011;4589;48.690;8.952;2022-11-28T11:32:47;6.50;;;5.23;;
9106;SDS011;4589;48.690;8.952;2022-11-28T11:35:18;12.93;;;6.43;;
9106;SDS011;4589;48.690;8.952;2022-11-28T11:37:45;12.90;;;7.57;;
9106;SDS011;4589;48.690;8.952;2022-11-28T11:42:49;8.67;;;7.07;;
9106;SDS011;4589;48.690;8.952;2022-11-28T11:45:23;8.90;;;7.13;;
9106;SDS011;4589;48.690;8.952;2022-11-28T11:47:49;9.50;;;6.00;;
9106;SDS011;4589;48.690;8.952;2022-11-28T11:50:16;7.90;;;6.50;;
9106;SDS011;4589;48.690;8.952;2022-11-28T11:52:43;10.17;;;7.03;;
9106;SDS011;4589;48.690;8.952;2022-11-28T11:55:13;7.10;;;6.40;;
9106;SDS011;4589;48.690;8.952;2022-11-28T11:57:44;8.70;;;6.77;;
9106;SDS011;4589;48.690;8.952;2022-11-28T12:02:44;8.17;;;6.50;;
9106;SDS011;4589;48.690;8.952;2022-11-28T12:05:17;8.00;;;7.00;;
9106;SDS011;4589;48.690;8.952;2022-11-28T12:07:54;11.40;;;7.10;;
9106;SDS011;4589;48.690;8.952;2022-11-28T12:10:23;11.87;;;7.10;;
9106;SDS011;4589;48.690;8.952;2022-11-28T12:12:51;11.63;;;7.90;;
9106;SDS011;4589;48.690;8.952;2022-11-28T12:15:20;10.00;;;8.10;;
9106;SDS011;4589;48.690;8.952;2022-11-28T12:20:54;10.17;;;7.47;;
9106;SDS011;4589;48.690;8.952;2022-11-28T12:26:35;9.47;;;6.87;;
9106;SDS011;4589;48.690;8.952;2022-11-28T12:34:16;14.93;;;8.20;;
9106;SDS011;4589;48.690;8.952;2022-11-28T12:59:58;4.40;;;3.93;;
9106;SDS011;4589;48.690;8.952;2022-11-28T13:10:21;5.97;;;4.63;;
9106;SDS011;4589;48.690;8.952;2022-11-28T13:12:52;4.83;;;4.30;;
9106;SDS011;4589;48.690;8.952;2022-11-28T13:15:33;7.20;;;4.10;;
9106;SDS011;4589;48.690;8.952;2022-11-28T13:20:28;6.03;;;5.43;;
9106;SDS011;4589;48.690;8.952;2022-11-28T13:23:08;10.83;;;5.13;;
9106;SDS011;4589;48.690;8.952;2022-11-28T13:25:44;10.70;;;5.17;;
9106;SDS011;4589;48.690;8.952;2022-11-28T13:28:15;5.83;;;5.13;;
9106;SDS011;4589;48.690;8.952;2022-11-28T13:30:44;13.20;;;8.23;;
9106;SDS011;4589;48.690;8.952;2022-11-28T13:33:26;12.20;;;8.37;;
9106;SDS011;4589;48.690;8.952;2022-11-28T13:35:53;19.50;;;10.60;;
9106;SDS011;4589;48.690;8.952;2022-11-28T13:40:52;46.60;;;23.10;;
9106;SDS011;4589;48.690;8.952;2022-11-28T13:46:08;12.20;;;9.07;;
9106;SDS011;4589;48.690;8.952;2022-11-28T13:53:35;13.10;;;10.00;;
9106;SDS011;4589;48.690;8.952;2022-11-28T13:58:30;8.50;;;6.07;;
9106;SDS011;4589;48.690;8.952;2022-11-28T14:01:12;7.00;;;5.57;;
9106;SDS011;4589;48.690;8.952;2022-11-28T14:04:21;8.07;;;5.00;;
9106;SDS011;4589;48.690;8.952;2022-11-28T14:06:28;6.27;;;4.60;;
9106;SDS011;4589;48.690;8.952;2022-11-28T14:16:40;10.07;;;7.87;;
9106;SDS011;4589;48.690;8.952;2022-11-28T14:21:50;8.30;;;6.37;;
9106;SDS011;4589;48.690;8.952;2022-11-28T14:26:43;12.13;;;8.53;;
9106;SDS011;4589;48.690;8.952;2022-11-28T14:29:20;10.80;;;7.57;;
9106;SDS011;4589;48.690;8.952;2022-11-28T14:31:47;15.07;;;10.77;;
9106;SDS011;4589;48.690;8.952;2022-11-28T14:39:45;22.07;;;14.07;;
9106;SDS011;4589;48.690;8.952;2022-11-28T14:52:31;11.23;;;8.53;;
9106;SDS011;4589;48.690;8.952;2022-11-28T14:55:01;11.03;;;7.30;;
9106;SDS011;4589;48.690;8.952;2022-11-28T14:57:29;9.80;;;8.73;;
9106;SDS011;4589;48.690;8.952;2022-11-28T15:00:36;11.73;;;7.07;;
9106;SDS011;4589;48.690;8.952;2022-11-28T15:02:58;10.70;;;9.07;;
9106;SDS011;4589;48.690;8.952;2022-11-28T15:15:48;12.07;;;8.17;;
9106;SDS011;4589;48.690;8.952;2022-11-28T15:18:15;12.80;;;7.90;;
9106;SDS011;4589;48.690;8.952;2022-11-28T15:21:16;14.37;;;7.83;;
9106;SDS011;4589;48.690;8.952;2022-11-28T15:23:35;15.30;;;7.60;;
9106;SDS011;4589;48.690;8.952;2022-11-28T15:26:02;10.20;;;8.00;;
9106;SDS011;4589;48.690;8.952;2022-11-28T15:28:29;14.70;;;9.13;;
9106;SDS011;4589;48.690;8.952;2022-11-28T15:30:58;15.00;;;9.17;;
9106;SDS011;4589;48.690;8.952;2022-11-28T15:33:25;9.93;;;7.80;;
9106;SDS011;4589;48.690;8.952;2022-11-28T15:36:00;14.80;;;10.20;;
9106;SDS011;4589;48.690;8.952;2022-11-28T15:38:28;14.03;;;9.40;;
9106;SDS011;4589;48.690;8.952;2022-11-28T15:40:55;14.70;;;9.70;;
9106;SDS011;4589;48.690;8.952;2022-11-28T15:43:21;12.60;;;9.83;;
9106;SDS011;4589;48.690;8.952;2022-11-28T15:45:51;10.43;;;8.23;;
9106;SDS011;4589;48.690;8.952;2022-11-28T15:50:53;13.00;;;9.30;;
9106;SDS011;4589;48.690;8.952;2022-11-28T15:53:20;16.80;;;9.27;;
9106;SDS011;4589;48.690;8.952;2022-11-28T15:55:46;10.90;;;9.50;;
9106;SDS011;4589;48.690;8.952;2022-11-28T15:58:22;13.23;;;9.60;;
9106;SDS011;4589;48.690;8.952;2022-11-28T16:01:09;16.17;;;10.40;;
9106;SDS011;4589;48.690;8.952;2022-11-28T16:03:58;18.07;;;9.50;;
9106;SDS011;4589;48.690;8.952;2022-11-28T16:06:30;12.70;;;9.43;;
9106;SDS011;4589;48.690;8.952;2022-11-28T16:08:58;14.40;;;10.33;;
9106;SDS011;4589;48.690;8.952;2022-11-28T16:11:25;14.13;;;10.17;;
9106;SDS011;4589;48.690;8.952;2022-11-28T16:13:52;15.97;;;10.80;;
9106;SDS011;4589;48.690;8.952;2022-11-28T16:16:20;21.53;;;10.80;;
9106;SDS011;4589;48.690;8.952;2022-11-28T16:18:52;22.03;;;14.27;;
9106;SDS011;4589;48.690;8.952;2022-11-28T16:21:20;23.20;;;16.03;;
9106;SDS011;4589;48.690;8.952;2022-11-28T16:23:48;93.93;;;45.03;;
9106;SDS011;4589;48.690;8.952;2022-11-28T16:26:22;51.60;;;32.43;;
9106;SDS011;4589;48.690;8.952;2022-11-28T16:28:58;41.80;;;28.30;;
9106;SDS011;4589;48.690;8.952;2022-11-28T16:31:24;28.97;;;20.20;;
9106;SDS011;4589;48.690;8.952;2022-11-28T16:33:51;29.13;;;18.33;;
9106;SDS011;4589;48.690;8.952;2022-11-28T16:36:18;25.70;;;17.20;;
9106;SDS011;4589;48.690;8.952;2022-11-28T16:38:44;18.33;;;15.87;;
9106;SDS011;4589;48.690;8.952;2022-11-28T16:43:41;17.80;;;14.43;;
9106;SDS011;4589;48.690;8.952;2022-11-28T16:46:15;21.17;;;14.13;;
9106;SDS011;4589;48.690;8.952;2022-11-28T16:48:46;20.00;;;14.37;;
9106;SDS011;4589;48.690;8.952;2022-11-28T16:59:02;20.33;;;15.57;;
9106;SDS011;4589;48.690;8.952;2022-11-28T17:01:33;20.70;;;15.90;;
9106;SDS011;4589;48.690;8.952;2022-11-28T17:04:00;26.93;;;16.70;;
9106;SDS011;4589;48.690;8.952;2022-11-28T17:06:27;32.47;;;21.20;;
9106;SDS011;4589;48.690;8.952;2022-11-28T17:08:54;32.63;;;19.50;;
9106;SDS011;4589;48.690;8.952;2022-11-28T17:11:21;27.03;;;20.47;;
9106;SDS011;4589;48.690;8.952;2022-11-28T17:13:48;35.57;;;24.17;;
9106;SDS011;4589;48.690;8.952;2022-11-28T17:16:15;32.23;;;21.70;;
9106;SDS011;4589;48.690;8.952;2022-11-28T17:18:41;33.73;;;21.00;;
9106;SDS011;4589;48.690;8.952;2022-11-28T17:21:10;29.77;;;18.10;;
9106;SDS011;4589;48.690;8.952;2022-11-28T17:23:38;26.47;;;17.37;;
9106;SDS011;4589;48.690;8.952;2022-11-28T17:26:05;32.87;;;20.40;;
9106;SDS011;4589;48.690;8.952;2022-11-28T17:28:31;25.47;;;17.30;;
9106;SDS011;4589;48.690;8.952;2022-11-28T17:30:57;26.70;;;17.90;;
9106;SDS011;4589;48.690;8.952;2022-11-28T17:33:23;29.67;;;18.73;;
9106;SDS011;4589;48.690;8.952;2022-11-28T17:35:49;25.80;;;17.40;;
9106;SDS011;4589;48.690;8.952;2022-11-28T17:38:16;25.63;;;18.17;;
9106;SDS011;4589;48.690;8.952;2022-11-28T17:40:44;22.37;;;17.27;;
9106;SDS011;4589;48.690;8.952;2022-11-28T17:43:17;25.50;;;16.60;;
9106;SDS011;4589;48.690;8.952;2022-11-28T17:45:43;25.77;;;16.50;;
9106;SDS011;4589;48.690;8.952;2022-11-28T17:48:09;17.83;;;13.40;;
9106;SDS011;4589;48.690;8.952;2022-11-28T17:50:38;18.27;;;14.80;;
9106;SDS011;4589;48.690;8.952;2022-11-28T17:53:04;22.23;;;17.50;;
9106;SDS011;4589;48.690;8.952;2022-11-28T17:55:30;22.80;;;16.60;;
9106;SDS011;4589;48.690;8.952;2022-11-28T17:57:56;24.90;;;16.07;;
9106;SDS011;4589;48.690;8.952;2022-11-28T18:00:24;30.23;;;19.23;;
9106;SDS011;4589;48.690;8.952;2022-11-28T18:02:53;22.80;;;15.53;;
9106;SDS011;4589;48.690;8.952;2022-11-28T18:05:19;21.37;;;14.27;;
9106;SDS011;4589;48.690;8.952;2022-11-28T18:07:45;27.80;;;13.23;;
9106;SDS011;4589;48.690;8.952;2022-11-28T18:10:11;19.20;;;13.20;;
9106;SDS011;4589;48.690;8.952;2022-11-28T18:12:37;18.80;;;12.50;;
9106;SDS011;4589;48.690;8.952;2022-11-28T18:15:03;23.10;;;13.67;;
9106;SDS011;4589;48.690;8.952;2022-11-28T18:17:29;25.60;;;16.73;;
9106;SDS011;4589;48.690;8.952;2022-11-28T18:19:55;26.37;;;17.80;;
9106;SDS011;4589;48.690;8.952;2022-11-28T18:22:21;27.67;;;17.80;;
9106;SDS011;4589;48.690;8.952;2022-11-28T18:24:47;23.43;;;15.43;;
9106;SDS011;4589;48.690;8.952;2022-11-28T18:27:13;23.60;;;14.80;;
9106;SDS011;4589;48.690;8.952;2022-11-28T18:29:39;18.07;;;13.17;;